This demonstration page uses our WeatherBlox Daily Observations layout. Learn more.

39.29038, -76.61219

Hourly Observations for June 13, 2019

Temp ( °F °C ) Dew Point ( °F °C ) Humidity (%) Winds ( mph kmh ) Pressure ( in mb ) Visibility ( mi km ) Precip ( " mm )
12:54 am 00:54 undefined 68 20 62 16.7 81 81 undefined N/A 29.97 1015 N/A 0 0
1:54 am 01:54 undefined 67 19.4 64 17.8 91 91 undefined N/A 29.91 1013 N/A 0.02 0.508
2:54 am 02:54 undefined 66 18.9 63 17.2 90 90 undefined N/A 29.85 1011 N/A 0.05 1.27
3:54 am 03:54 undefined 65 18.3 63 17.2 93 93 undefined N/A 29.83 1010 N/A 0.16 4.064
4:54 am 04:54 undefined 64 17.8 61 16.1 90 90 undefined N/A 29.83 1010 N/A 0.06 1.524
5:54 am 05:54 undefined 63 17.2 61 16.1 93 93 undefined N/A 29.83 1010 N/A 0.11 2.794
6:54 am 06:54 undefined 62 16.7 59 15 90 90 undefined N/A 29.8 1009 N/A 0.14 3.556
7:54 am 07:54 undefined 62 16.7 59 15 90 90 undefined N/A 29.77 1008 N/A 0 0
8:54 am 08:54 undefined 63 17.2 59 15 87 87 undefined N/A 29.8 1009 N/A 0 0
9:54 am 09:54 undefined 64 17.8 60 15.6 87 87 undefined N/A 29.8 1009 N/A 0 0
10:54 am 10:54 undefined 65 18.3 60 15.6 84 84 undefined N/A 29.8 1009 N/A 0 0
11:54 am 11:54 undefined 66 18.9 60 15.6 81 81 undefined N/A 29.8 1009 N/A 0 0
12:54 pm 12:54 undefined 68 20 61 16.1 78 78 undefined N/A 29.8 1009 N/A 0 0
1:54 pm 13:54 undefined 68 20 61 16.1 78 78 undefined N/A 29.77 1008 N/A 0 0
2:54 pm 14:54 undefined 68 20 62 16.7 81 81 undefined N/A 29.74 1007 N/A 0 0
3:54 pm 15:54 undefined 70 21.1 63 17.2 79 79 undefined N/A 29.74 1007 N/A 0 0
4:54 pm 16:54 undefined 74 23.3 65 18.3 74 74 undefined N/A 29.71 1006 N/A 0 0
5:54 pm 17:54 undefined 74 23.3 65 18.3 74 74 undefined N/A 29.68 1005 N/A 0 0
6:54 pm 18:54 undefined 65 18.3 61 16.1 87 87 undefined N/A 29.68 1005 N/A 0.1 2.54
7:54 pm 19:54 undefined 65 18.3 60 15.6 84 84 undefined N/A 29.77 1008 N/A 0 0
8:54 pm 20:54 undefined 66 18.9 60 15.6 81 81 undefined N/A 29.8 1009 N/A 0 0
9:54 pm 21:54 undefined 65 18.3 61 16.1 87 87 undefined N/A 29.83 1010 N/A 0 0
10:54 pm 22:54 undefined 65 18.3 56 13.3 73 73 undefined N/A 29.83 1010 N/A 0 0
11:54 pm 23:54 undefined 63 17.2 54 12.2 73 73 undefined N/A 29.83 1010 N/A 0 0

Powered by AerisWeather